createdAt,value
2019-03-28T00:01:55.824Z,17.27
2019-03-28T00:04:28.176Z,12.90
2019-03-28T00:07:00.495Z,17.47
2019-03-28T00:09:32.837Z,11.83
2019-03-28T00:12:05.098Z,10.93
2019-03-28T00:14:37.417Z,28.03
2019-03-28T00:17:09.742Z,10.17
2019-03-28T00:19:42.044Z,14.43
2019-03-28T00:22:18.798Z,17.20
2019-03-28T00:24:57.082Z,15.43
2019-03-28T00:27:29.348Z,17.13
2019-03-28T00:30:01.665Z,12.37
2019-03-28T00:32:33.996Z,16.37
2019-03-28T00:35:06.392Z,14.27
2019-03-28T00:37:38.611Z,15.93
2019-03-28T00:40:11.084Z,13.63
2019-03-28T00:42:43.286Z,14.50
2019-03-28T00:45:15.410Z,14.33
2019-03-28T00:47:47.562Z,13.70
2019-03-28T00:50:19.810Z,11.83
2019-03-28T00:52:52.042Z,11.37
2019-03-28T00:55:24.188Z,14.23
2019-03-28T00:57:56.413Z,10.33
2019-03-28T01:00:28.550Z,12.13
2019-03-28T01:03:00.771Z,15.53
2019-03-28T01:05:32.983Z,19.07
2019-03-28T01:08:05.203Z,17.63
2019-03-28T01:10:37.348Z,12.70
2019-03-28T01:13:09.577Z,14.57
2019-03-28T01:15:41.792Z,12.53
2019-03-28T01:18:14.021Z,12.10
2019-03-28T01:20:46.168Z,11.90
2019-03-28T01:23:18.332Z,12.20
2019-03-28T01:25:50.823Z,14.07
2019-03-28T01:28:23.321Z,12.67
2019-03-28T01:30:56.463Z,13.20
2019-03-28T01:33:28.705Z,12.83
2019-03-28T01:36:00.853Z,12.70
2019-03-28T01:38:33.109Z,12.67
2019-03-28T01:41:05.265Z,12.10
2019-03-28T01:43:37.523Z,11.80
2019-03-28T01:46:09.667Z,9.77
2019-03-28T01:48:41.897Z,11.43
2019-03-28T01:51:14.055Z,10.27
2019-03-28T01:53:46.204Z,9.97
2019-03-28T01:56:18.366Z,10.20
2019-03-28T01:58:50.847Z,9.47
2019-03-28T02:01:23.313Z,11.00
2019-03-28T02:03:55.530Z,9.50
2019-03-28T02:06:27.739Z,10.33
2019-03-28T02:08:59.967Z,11.77
2019-03-28T02:11:32.176Z,10.30
2019-03-28T02:14:04.381Z,10.33
2019-03-28T02:16:36.608Z,8.90
2019-03-28T02:19:08.831Z,8.73
2019-03-28T02:21:41.124Z,8.80
2019-03-28T02:24:13.352Z,8.53
2019-03-28T02:26:45.562Z,8.33
2019-03-28T02:29:17.718Z,8.70
2019-03-28T02:31:50.268Z,8.60
2019-03-28T02:34:22.486Z,8.07
2019-03-28T02:36:54.687Z,8.37
2019-03-28T02:39:26.915Z,8.43
2019-03-28T02:41:59.125Z,8.50
2019-03-28T02:44:31.252Z,8.13
2019-03-28T02:47:03.481Z,7.40
2019-03-28T02:49:35.710Z,7.50
2019-03-28T02:52:07.923Z,7.93
2019-03-28T02:54:40.061Z,8.10
2019-03-28T02:57:12.216Z,7.90
2019-03-28T02:59:44.420Z,8.07
2019-03-28T03:02:16.658Z,7.90
2019-03-28T03:04:48.870Z,8.90
2019-03-28T03:07:21.471Z,8.20
2019-03-28T03:09:53.958Z,8.60
2019-03-28T03:12:26.230Z,9.03
2019-03-28T03:14:58.464Z,8.93
2019-03-28T03:17:30.665Z,9.13
2019-03-28T03:20:02.801Z,9.03
2019-03-28T03:22:35.010Z,9.00
2019-03-28T03:25:07.752Z,9.67
2019-03-28T03:27:56.212Z,8.60
2019-03-28T03:30:14.473Z,9.23
2019-03-28T03:32:46.705Z,11.73
2019-03-28T03:35:20.293Z,9.17
2019-03-28T03:37:52.440Z,41.87
2019-03-28T03:40:24.601Z,10.03
2019-03-28T03:42:57.160Z,9.03
2019-03-28T03:45:29.419Z,8.90
2019-03-28T03:48:01.668Z,9.37
2019-03-28T03:50:33.808Z,9.60
2019-03-28T03:53:06.037Z,9.70
2019-03-28T03:55:38.179Z,8.57
2019-03-28T03:58:16.206Z,8.87
2019-03-28T04:00:44.376Z,9.70
2019-03-28T04:03:16.661Z,9.47
2019-03-28T04:05:48.918Z,8.83
2019-03-28T04:08:21.596Z,8.20
2019-03-28T04:10:54.094Z,9.00
2019-03-28T04:13:26.395Z,8.77
2019-03-28T04:15:59.129Z,8.47
2019-03-28T04:18:31.451Z,10.23
2019-03-28T04:21:03.791Z,8.27
2019-03-28T04:23:36.076Z,8.67
2019-03-28T04:26:09.492Z,9.77
2019-03-28T04:28:41.813Z,9.97
2019-03-28T04:31:14.153Z,9.33
2019-03-28T04:33:46.479Z,9.67
2019-03-28T04:36:18.788Z,7.97
2019-03-28T04:38:52.388Z,9.87
2019-03-28T04:41:24.798Z,10.77
2019-03-28T04:43:57.185Z,11.60
2019-03-28T04:46:29.493Z,10.37
2019-03-28T04:49:01.882Z,8.70
2019-03-28T04:51:34.130Z,9.20
2019-03-28T04:54:09.610Z,10.17
2019-03-28T04:56:40.410Z,8.33
2019-03-28T04:59:12.800Z,8.07
2019-03-28T05:01:59.423Z,8.33
2019-03-28T05:04:21.053Z,9.00
2019-03-28T05:06:53.282Z,9.57
2019-03-28T05:09:25.519Z,10.27
2019-03-28T05:11:57.839Z,10.00
2019-03-28T05:14:30.166Z,9.67
2019-03-28T05:17:02.420Z,9.90
2019-03-28T05:19:34.793Z,9.60
2019-03-28T05:22:07.149Z,10.20
2019-03-28T05:24:39.389Z,9.67
2019-03-28T05:27:11.626Z,10.20
2019-03-28T05:29:43.889Z,8.87
2019-03-28T05:32:16.215Z,7.50
2019-03-28T05:34:48.465Z,9.93
2019-03-28T05:37:21.506Z,9.03
2019-03-28T05:39:54.030Z,7.63
2019-03-28T05:42:26.363Z,9.10
2019-03-28T05:44:58.632Z,8.73
2019-03-28T05:47:31.013Z,8.03
2019-03-28T05:50:03.339Z,6.17
2019-03-28T05:52:35.611Z,5.83
2019-03-28T05:55:07.854Z,6.20
2019-03-28T05:57:40.026Z,5.53
2019-03-28T06:00:12.160Z,6.40
2019-03-28T06:02:44.394Z,8.70
2019-03-28T06:05:16.591Z,7.60
2019-03-28T06:07:48.722Z,5.87
2019-03-28T06:10:21.032Z,8.40
2019-03-28T06:12:53.256Z,7.30
2019-03-28T06:15:25.399Z,7.17
2019-03-28T06:17:57.533Z,5.63
2019-03-28T06:20:30.199Z,5.43
2019-03-28T06:23:02.410Z,7.30
2019-03-28T06:25:34.638Z,8.10
2019-03-28T06:28:06.871Z,9.30
2019-03-28T06:30:39.014Z,6.67
2019-03-28T06:33:11.219Z,8.90
2019-03-28T06:35:43.461Z,9.57
2019-03-28T06:38:15.672Z,5.63
2019-03-28T06:40:47.814Z,7.10
2019-03-28T06:43:20.363Z,7.73
2019-03-28T06:45:52.511Z,6.20
2019-03-28T06:48:24.678Z,6.27
2019-03-28T06:50:56.842Z,6.57
2019-03-28T06:53:28.980Z,6.10
2019-03-28T06:56:01.109Z,7.20
2019-03-28T06:58:33.424Z,6.23
2019-03-28T07:01:06.638Z,5.80
2019-03-28T07:03:38.878Z,7.03
2019-03-28T07:06:11.093Z,7.63
2019-03-28T07:08:44.215Z,6.53
2019-03-28T07:11:16.648Z,6.50
2019-03-28T07:13:49.966Z,5.83
2019-03-28T07:16:22.065Z,7.13
2019-03-28T07:18:54.327Z,10.43
2019-03-28T07:21:26.775Z,8.43
2019-03-28T07:23:58.985Z,7.03
2019-03-28T07:26:31.197Z,7.80
2019-03-28T07:29:03.341Z,7.40
2019-03-28T07:31:35.766Z,8.07
2019-03-28T07:34:07.975Z,9.50
2019-03-28T07:36:40.189Z,9.00
2019-03-28T07:39:13.412Z,7.43
2019-03-28T07:41:45.711Z,13.17
2019-03-28T07:44:17.932Z,15.23
2019-03-28T07:46:50.377Z,15.93
2019-03-28T07:49:22.716Z,18.30
2019-03-28T07:51:54.878Z,9.93
2019-03-28T07:54:27.030Z,11.03
2019-03-28T07:56:59.188Z,8.93
2019-03-28T07:59:31.325Z,10.10
2019-03-28T08:02:03.546Z,10.10
2019-03-28T08:04:35.755Z,8.33
2019-03-28T08:07:08.012Z,8.60
2019-03-28T08:09:40.168Z,8.10
2019-03-28T08:12:22.375Z,9.40
2019-03-28T08:14:46.226Z,9.33
2019-03-28T08:17:18.456Z,8.27
2019-03-28T08:19:50.594Z,9.40
2019-03-28T08:22:22.773Z,11.20
2019-03-28T08:24:55.094Z,8.47
2019-03-28T08:27:27.362Z,7.90
2019-03-28T08:29:59.596Z,7.63
2019-03-28T08:32:31.843Z,8.10
2019-03-28T08:35:03.987Z,7.80
2019-03-28T08:37:36.818Z,12.40
2019-03-28T08:40:09.172Z,7.97
2019-03-28T08:42:41.393Z,7.40
2019-03-28T08:45:13.561Z,8.00
2019-03-28T08:47:45.707Z,8.27
2019-03-28T08:50:17.940Z,12.80
2019-03-28T08:52:50.263Z,10.57
2019-03-28T08:55:22.531Z,10.23
2019-03-28T08:57:54.841Z,8.90
2019-03-28T09:00:35.212Z,9.03
2019-03-28T09:03:01.951Z,8.57
2019-03-28T09:05:34.184Z,8.70
2019-03-28T09:08:06.356Z,8.50
2019-03-28T09:10:38.525Z,6.23
2019-03-28T09:13:10.787Z,7.50
2019-03-28T09:15:44.253Z,16.93
2019-03-28T09:18:16.522Z,28.93
2019-03-28T09:20:48.660Z,13.47
2019-03-28T09:23:21.457Z,9.10
2019-03-28T09:25:53.941Z,10.60
2019-03-28T09:28:26.100Z,5.87
2019-03-28T09:30:58.265Z,4.93
2019-03-28T09:33:30.421Z,4.83
2019-03-28T09:36:02.578Z,6.00
2019-03-28T09:38:35.690Z,5.33
2019-03-28T09:41:07.957Z,5.47
2019-03-28T09:43:54.217Z,5.67
2019-03-28T09:46:14.586Z,6.63
2019-03-28T09:48:46.942Z,27.07
2019-03-28T09:51:19.168Z,7.83
2019-03-28T09:53:51.450Z,6.07
2019-03-28T09:56:23.926Z,10.13
2019-03-28T09:58:56.074Z,6.20
2019-03-28T10:01:28.326Z,6.17
2019-03-28T10:04:01.561Z,7.40
2019-03-28T10:06:33.782Z,4.97
2019-03-28T10:09:07.284Z,11.93
2019-03-28T10:11:39.588Z,6.30
2019-03-28T10:14:12.815Z,5.07
2019-03-28T10:16:44.963Z,5.63
2019-03-28T10:19:17.190Z,4.83
2019-03-28T10:21:49.346Z,15.40
2019-03-28T10:24:21.579Z,9.60
2019-03-28T10:26:54.481Z,10.63
2019-03-28T10:29:26.960Z,8.50
2019-03-28T10:31:59.125Z,7.37
2019-03-28T10:34:31.299Z,5.13
2019-03-28T10:37:04.874Z,8.67
2019-03-28T10:39:37.257Z,4.97
2019-03-28T10:42:12.180Z,8.73
2019-03-28T10:44:44.348Z,5.47
2019-03-28T10:47:17.468Z,3.87
2019-03-28T10:49:49.688Z,3.00
2019-03-28T10:52:21.828Z,6.10
2019-03-28T10:54:54.484Z,2.70
2019-03-28T10:57:31.334Z,4.87
2019-03-28T11:00:00.876Z,7.17
2019-03-28T11:02:33.102Z,4.10
2019-03-28T11:05:05.622Z,4.07
2019-03-28T11:07:37.844Z,5.67
2019-03-28T11:10:10.381Z,4.50
2019-03-28T11:12:42.597Z,5.60
2019-03-28T11:15:14.816Z,5.47
2019-03-28T11:17:47.619Z,20.47
2019-03-28T11:20:20.749Z,8.27
2019-03-28T11:22:53.277Z,9.37
2019-03-28T11:25:25.429Z,10.90
2019-03-28T11:27:57.611Z,7.77
2019-03-28T11:30:29.769Z,4.63
2019-03-28T11:33:01.990Z,5.10
2019-03-28T11:35:34.147Z,4.70
2019-03-28T11:38:09.453Z,5.20
2019-03-28T11:40:42.922Z,4.20
2019-03-28T11:43:14.428Z,4.23
2019-03-28T11:45:46.705Z,9.10
2019-03-28T11:48:18.859Z,4.27
2019-03-28T11:50:51.453Z,5.27
2019-03-28T11:53:23.967Z,4.10
2019-03-28T11:55:56.179Z,4.10
2019-03-28T11:58:28.401Z,3.73
2019-03-28T12:01:00.833Z,3.87
2019-03-28T12:03:33.050Z,5.07
2019-03-28T12:06:05.203Z,4.17
2019-03-28T12:08:37.425Z,5.10
2019-03-28T12:11:09.577Z,6.10
2019-03-28T12:13:44.951Z,3.60
2019-03-28T12:16:15.645Z,13.73
2019-03-28T12:18:47.803Z,10.00
2019-03-28T12:21:20.259Z,3.50
2019-03-28T12:23:52.521Z,5.47
2019-03-28T12:26:24.668Z,6.83
2019-03-28T12:28:57.658Z,9.00
2019-03-28T12:31:33.073Z,5.10
2019-03-28T12:34:03.805Z,8.87
2019-03-28T12:36:36.026Z,12.33
2019-03-28T12:39:08.655Z,6.33
2019-03-28T12:41:40.873Z,4.60
2019-03-28T12:44:13.093Z,3.20
2019-03-28T12:46:46.229Z,5.03
2019-03-28T12:49:18.473Z,8.60
2019-03-28T12:51:50.624Z,6.27
2019-03-28T12:54:22.763Z,4.17
2019-03-28T12:56:58.029Z,3.80
2019-03-28T12:59:28.869Z,4.53
2019-03-28T13:02:01.041Z,4.77
2019-03-28T13:04:33.253Z,4.70
2019-03-28T13:07:05.412Z,5.83
2019-03-28T13:09:37.577Z,5.40
2019-03-28T13:12:11.458Z,5.63
2019-03-28T13:14:43.912Z,4.23
2019-03-28T13:17:16.043Z,4.50
2019-03-28T13:19:48.207Z,10.13
2019-03-28T13:22:20.359Z,4.77
2019-03-28T13:24:52.502Z,48.10
2019-03-28T13:27:24.728Z,9.17
2019-03-28T13:29:56.980Z,73.63
2019-03-28T13:32:41.125Z,6.77
2019-03-28T13:35:02.982Z,5.33
2019-03-28T13:37:35.189Z,5.43
2019-03-28T13:40:07.427Z,5.20
2019-03-28T13:42:39.571Z,9.30
2019-03-28T13:45:11.734Z,9.30
2019-03-28T13:47:43.972Z,10.60
2019-03-28T13:50:18.392Z,5.67
2019-03-28T13:52:50.556Z,8.20
2019-03-28T13:55:25.117Z,12.67
2019-03-28T13:57:57.654Z,19.43
2019-03-28T14:00:33.934Z,7.60
2019-03-28T14:03:06.238Z,11.07
2019-03-28T14:05:38.456Z,30.20
2019-03-28T14:08:11.291Z,10.20
2019-03-28T14:10:43.526Z,6.13
2019-03-28T14:13:15.734Z,5.77
2019-03-28T14:15:47.871Z,8.50
2019-03-28T14:18:20.311Z,13.53
2019-03-28T14:20:52.545Z,13.93
2019-03-28T14:23:24.715Z,21.17
2019-03-28T14:25:56.988Z,19.73
2019-03-28T14:28:29.214Z,17.83
2019-03-28T14:31:01.374Z,35.53
2019-03-28T14:33:33.612Z,33.83
2019-03-28T14:36:05.832Z,9.23
2019-03-28T14:38:37.983Z,10.77
2019-03-28T14:41:10.213Z,13.67
2019-03-28T14:43:42.386Z,5.80
2019-03-28T14:46:14.550Z,20.20
2019-03-28T14:48:46.749Z,9.67
2019-03-28T14:51:18.970Z,16.03
2019-03-28T14:53:51.563Z,10.83
2019-03-28T14:56:24.421Z,9.50
2019-03-28T14:58:56.971Z,10.90
2019-03-28T15:01:29.141Z,7.60
2019-03-28T15:04:01.365Z,7.80
2019-03-28T15:06:33.604Z,5.57
2019-03-28T15:09:08.479Z,23.60
2019-03-28T15:11:40.707Z,13.83
2019-03-28T15:14:12.883Z,11.70
2019-03-28T15:16:45.040Z,5.63
2019-03-28T15:19:17.198Z,12.43
2019-03-28T15:21:50.525Z,22.07
2019-03-28T15:24:22.765Z,26.67
2019-03-28T15:26:55.322Z,9.80
2019-03-28T15:29:27.531Z,11.93
2019-03-28T15:31:59.780Z,44.93
2019-03-28T15:34:32.050Z,15.17
2019-03-28T15:37:04.293Z,28.63
2019-03-28T15:39:40.712Z,26.53
2019-03-28T15:42:13.101Z,17.57
2019-03-28T15:44:45.345Z,15.40
2019-03-28T15:47:17.806Z,67.73
2019-03-28T15:49:51.149Z,27.70
2019-03-28T15:52:23.537Z,24.93
2019-03-28T15:54:55.786Z,39.97
2019-03-28T15:57:27.978Z,44.33
2019-03-28T16:00:00.352Z,24.50
2019-03-28T16:02:32.617Z,70.20
2019-03-28T16:05:04.881Z,20.07
2019-03-28T16:07:37.106Z,17.40
2019-03-28T16:10:10.547Z,25.77
2019-03-28T16:12:42.773Z,22.97
2019-03-28T16:15:15.023Z,30.33
2019-03-28T16:17:47.668Z,27.33
2019-03-28T16:20:20.582Z,14.20
2019-03-28T16:22:52.822Z,41.13
2019-03-28T16:25:25.037Z,21.43
2019-03-28T16:27:57.249Z,22.40
2019-03-28T16:30:36.876Z,11.60
2019-03-28T16:33:09.385Z,86.50
2019-03-28T16:35:41.638Z,82.73
2019-03-28T16:38:13.881Z,39.77
2019-03-28T16:40:46.120Z,32.97
2019-03-28T16:43:18.305Z,21.90
2019-03-28T16:45:50.581Z,22.53
2019-03-28T16:48:22.834Z,17.37
2019-03-28T16:50:56.063Z,16.80
2019-03-28T16:53:28.314Z,19.27
2019-03-28T16:56:00.474Z,36.83
2019-03-28T16:58:32.635Z,26.23
2019-03-28T17:01:04.967Z,24.23
2019-03-28T17:03:37.195Z,28.67
2019-03-28T17:06:09.455Z,20.93
2019-03-28T17:08:41.683Z,26.73
2019-03-28T17:11:13.870Z,124.97
2019-03-28T17:13:46.510Z,381.80
2019-03-28T17:16:18.693Z,206.13
2019-03-28T17:18:50.942Z,132.33
2019-03-28T17:21:23.576Z,119.60
2019-03-28T17:23:55.832Z,121.70
2019-03-28T17:26:28.007Z,108.47
2019-03-28T17:29:00.185Z,104.40
2019-03-28T17:31:32.464Z,151.10
2019-03-28T17:34:04.650Z,203.90
2019-03-28T17:36:36.831Z,195.80
2019-03-28T17:39:09.174Z,137.77
2019-03-28T17:41:41.428Z,140.13
2019-03-28T17:44:14.699Z,129.50
2019-03-28T17:46:47.020Z,139.43
2019-03-28T17:49:19.185Z,53.03
2019-03-28T17:51:51.759Z,52.67
2019-03-28T17:54:24.454Z,84.53
2019-03-28T17:56:56.623Z,49.17
2019-03-28T17:59:28.910Z,52.60
2019-03-28T18:02:01.138Z,38.97
2019-03-28T18:04:33.373Z,50.70
2019-03-28T18:07:05.614Z,53.57
2019-03-28T18:09:38.002Z,73.97
2019-03-28T18:12:10.288Z,61.10
2019-03-28T18:14:42.428Z,60.47
2019-03-28T18:17:14.591Z,81.10
2019-03-28T18:19:46.748Z,83.43
2019-03-28T18:22:18.910Z,79.23
2019-03-28T18:24:51.729Z,75.10
2019-03-28T18:27:24.498Z,68.37
2019-03-28T18:29:56.946Z,65.33
2019-03-28T18:32:29.197Z,57.70
2019-03-28T18:35:05.540Z,100.07
2019-03-28T18:37:35.512Z,84.20
2019-03-28T18:40:07.752Z,67.10
2019-03-28T18:42:39.987Z,73.43
2019-03-28T18:45:12.807Z,81.87
2019-03-28T18:47:45.129Z,93.03
2019-03-28T18:50:17.315Z,102.60
2019-03-28T18:52:49.556Z,101.93
2019-03-28T18:55:21.795Z,91.40
2019-03-28T18:57:54.488Z,84.87
2019-03-28T19:00:26.747Z,91.00
2019-03-28T19:02:58.917Z,112.27
2019-03-28T19:05:31.135Z,87.37
2019-03-28T19:08:04.333Z,81.80
2019-03-28T19:10:37.734Z,65.17
2019-03-28T19:13:10.081Z,65.83
2019-03-28T19:15:42.255Z,101.63
2019-03-28T19:18:14.510Z,125.73
2019-03-28T19:20:46.836Z,110.00
2019-03-28T19:23:19.377Z,151.27
2019-03-28T19:25:51.697Z,139.03
2019-03-28T19:28:29.156Z,157.30
2019-03-28T19:30:57.810Z,144.20
2019-03-28T19:33:30.076Z,147.83
2019-03-28T19:36:03.317Z,156.07
2019-03-28T19:38:35.786Z,172.73
2019-03-28T19:41:08.881Z,235.23
2019-03-28T19:43:41.051Z,206.70
2019-03-28T19:46:13.404Z,206.80
2019-03-28T19:48:45.779Z,267.90
2019-03-28T19:51:18.247Z,182.83
2019-03-28T19:53:51.271Z,217.17
2019-03-28T19:56:23.857Z,195.80
2019-03-28T19:58:59.213Z,166.00
2019-03-28T20:01:31.946Z,176.13
2019-03-28T20:04:04.595Z,204.43
2019-03-28T20:06:36.879Z,244.30
2019-03-28T20:09:16.225Z,161.07
2019-03-28T20:11:43.307Z,180.00
2019-03-28T20:14:16.049Z,157.60
2019-03-28T20:16:48.309Z,155.60
2019-03-28T20:19:20.590Z,205.13
2019-03-28T20:21:52.763Z,173.83
2019-03-28T20:24:25.166Z,142.73
2019-03-28T20:26:57.571Z,142.50
2019-03-28T20:29:29.758Z,184.53
2019-03-28T20:32:01.999Z,209.27
2019-03-28T20:34:34.326Z,204.10
2019-03-28T20:37:06.566Z,210.97
2019-03-28T20:39:38.812Z,208.67
2019-03-28T20:42:11.051Z,215.27
2019-03-28T20:44:43.302Z,291.77
2019-03-28T20:47:15.539Z,245.00
2019-03-28T20:49:47.834Z,195.07
2019-03-28T20:52:20.355Z,192.20
2019-03-28T20:54:53.015Z,194.40
2019-03-28T20:57:25.472Z,190.80
2019-03-28T20:59:57.695Z,194.87
2019-03-28T21:02:29.931Z,200.13
2019-03-28T21:05:03.732Z,219.70
2019-03-28T21:07:36.765Z,228.77
2019-03-28T21:10:10.734Z,190.53
2019-03-28T21:12:43.810Z,192.33
2019-03-28T21:15:16.343Z,199.20
2019-03-28T21:17:49.130Z,184.00
2019-03-28T21:20:22.069Z,204.33
2019-03-28T21:22:54.634Z,203.07
2019-03-28T21:25:29.572Z,201.33
2019-03-28T21:28:00.861Z,157.57
2019-03-28T21:30:46.345Z,203.13
2019-03-28T21:33:07.012Z,207.83
2019-03-28T21:35:39.435Z,192.20
2019-03-28T21:38:11.640Z,229.40
2019-03-28T21:40:43.798Z,188.83
2019-03-28T21:43:16.029Z,289.63
2019-03-28T21:45:48.321Z,256.00
2019-03-28T21:48:20.455Z,243.50
2019-03-28T21:50:53.221Z,206.40
2019-03-28T21:53:26.127Z,169.70
2019-03-28T21:55:59.243Z,119.53
2019-03-28T21:58:31.497Z,100.67
2019-03-28T22:01:03.662Z,83.40
2019-03-28T22:03:35.882Z,100.27
2019-03-28T22:06:09.010Z,90.47
2019-03-28T22:08:41.154Z,41.87
2019-03-28T22:11:13.711Z,45.10
2019-03-28T22:13:46.038Z,33.03
2019-03-28T22:16:18.210Z,30.23
2019-03-28T22:18:50.358Z,32.43
2019-03-28T22:21:23.016Z,27.70
2019-03-28T22:23:55.536Z,29.63
2019-03-28T22:26:27.717Z,45.00
2019-03-28T22:28:59.906Z,68.33
2019-03-28T22:31:32.452Z,46.63
2019-03-28T22:34:04.627Z,49.30
2019-03-28T22:36:36.778Z,55.97
2019-03-28T22:39:09.208Z,33.27
2019-03-28T22:41:41.430Z,35.83
2019-03-28T22:44:14.363Z,29.00
2019-03-28T22:46:46.718Z,32.87
2019-03-28T22:49:18.877Z,30.87
2019-03-28T22:51:51.104Z,49.33
2019-03-28T22:54:23.254Z,43.73
2019-03-28T22:56:55.729Z,36.00
2019-03-28T22:59:27.878Z,34.57
2019-03-28T23:02:00.120Z,30.37
2019-03-28T23:04:32.440Z,28.93
2019-03-28T23:07:10.802Z,29.10
2019-03-28T23:09:38.578Z,30.97
2019-03-28T23:12:10.736Z,27.13
2019-03-28T23:14:42.970Z,20.53
2019-03-28T23:17:15.124Z,21.50
2019-03-28T23:19:47.394Z,31.97
2019-03-28T23:22:19.556Z,28.53
2019-03-28T23:24:53.038Z,23.67
2019-03-28T23:27:26.933Z,29.73
2019-03-28T23:29:59.250Z,37.13
2019-03-28T23:32:31.493Z,29.60
2019-03-28T23:35:03.710Z,30.70
2019-03-28T23:37:35.953Z,28.00
2019-03-28T23:40:08.337Z,22.13
2019-03-28T23:42:40.581Z,23.97
2019-03-28T23:45:13.044Z,26.23
2019-03-28T23:47:45.360Z,25.53
2019-03-28T23:50:17.530Z,24.47
2019-03-28T23:52:49.853Z,24.10
2019-03-28T23:55:22.086Z,19.37
2019-03-28T23:57:55.187Z,15.13
